createdAt,value
2022-09-18T00:04:35.337Z,96922.84
2022-09-18T00:09:36.677Z,96921.63
2022-09-18T00:14:38.076Z,96935.19
2022-09-18T00:19:39.426Z,96930.84
2022-09-18T00:24:40.697Z,96940.13
2022-09-18T00:29:41.977Z,96925.94
2022-09-18T00:34:43.252Z,96921.63
2022-09-18T00:39:44.815Z,96924.50
2022-09-18T00:44:47.049Z,96928.59
2022-09-18T00:49:57.028Z,96934.56
2022-09-18T00:55:02.273Z,96931.47
2022-09-18T01:00:10.664Z,96942.97
2022-09-18T01:05:14.029Z,96933.53
2022-09-18T01:10:24.452Z,96941.97
2022-09-18T01:15:34.953Z,96945.47
2022-09-18T01:20:37.558Z,96948.94
2022-09-18T01:25:50.460Z,96955.09
2022-09-18T01:30:55.173Z,96947.09
2022-09-18T01:35:59.753Z,96956.94
2022-09-18T01:41:02.645Z,96966.38
2022-09-18T01:46:07.164Z,96958.78
2022-09-18T01:51:20.474Z,96961.88
2022-09-18T01:56:31.006Z,96960.63
2022-09-18T02:01:33.650Z,96965.34
2022-09-18T02:06:41.924Z,96971.50
2022-09-18T02:11:45.972Z,96962.66
2022-09-18T02:16:52.913Z,96972.50
2022-09-18T02:21:56.034Z,96962.63
2022-09-18T02:26:58.259Z,96961.81
2022-09-18T02:32:00.292Z,96958.09
2022-09-18T02:37:20.229Z,96960.97
2022-09-18T02:42:21.530Z,96959.28
2022-09-18T02:47:33.744Z,96958.66
2022-09-18T02:52:41.811Z,96964.56
2022-09-18T02:57:46.577Z,96974.00
2022-09-18T03:02:50.003Z,96967.38
2022-09-18T03:08:02.589Z,96979.09
2022-09-18T03:13:05.575Z,96989.34
2022-09-18T03:18:07.063Z,96996.69
2022-09-18T03:23:08.713Z,96989.75
2022-09-18T03:28:10.480Z,97013.31
2022-09-18T03:33:14.888Z,97009.84
2022-09-18T03:38:17.805Z,97011.88
2022-09-18T03:43:19.438Z,97027.25
2022-09-18T03:48:21.371Z,97018.63
2022-09-18T03:53:24.153Z,97024.31
2022-09-18T03:58:43.899Z,97039.88
2022-09-18T04:04:11.053Z,97054.41
2022-09-18T04:09:35.459Z,97043.94
2022-09-18T04:14:36.768Z,97053.81
2022-09-18T04:19:38.434Z,97066.97
2022-09-18T04:24:45.312Z,97062.84
2022-09-18T04:29:48.036Z,97058.94
2022-09-18T04:34:51.272Z,97065.06
2022-09-18T04:39:53.413Z,97056.88
2022-09-18T04:44:55.841Z,97082.50
2022-09-18T04:49:57.460Z,97080.03
2022-09-18T04:55:01.379Z,97080.25
2022-09-18T05:00:04.635Z,97085.97
2022-09-18T05:05:06.510Z,97090.47
2022-09-18T05:10:10.458Z,97088.63
2022-09-18T05:15:13.421Z,97103.59
2022-09-18T05:20:15.110Z,97108.31
2022-09-18T05:25:20.503Z,97119.34
2022-09-18T05:30:22.586Z,97109.69
2022-09-18T05:35:29.669Z,97118.53
2022-09-18T05:40:34.141Z,97117.34
2022-09-18T05:45:36.935Z,97133.56
2022-09-18T05:50:50.784Z,97151.47
2022-09-18T05:55:52.595Z,97147.41
2022-09-18T06:00:56.671Z,97142.91
2022-09-18T06:06:02.954Z,97157.28
2022-09-18T06:11:04.356Z,97158.00
2022-09-18T06:16:07.063Z,97157.66
2022-09-18T06:21:21.217Z,97163.91
2022-09-18T06:26:22.611Z,97162.91
2022-09-18T06:31:24.915Z,97173.41
2022-09-18T06:36:35.336Z,97165.59
2022-09-18T06:41:55.534Z,97170.13
2022-09-18T06:47:19.418Z,97173.25
2022-09-18T06:52:22.353Z,97177.78
2022-09-18T06:57:23.676Z,97185.63
2022-09-18T07:02:25.054Z,97183.75
2022-09-18T07:07:46.654Z,97182.28
2022-09-18T07:12:51.092Z,97185.97
2022-09-18T07:17:57.535Z,97190.91
2022-09-18T07:23:00.323Z,97205.25
2022-09-18T07:28:13.726Z,97205.66
2022-09-18T07:33:25.193Z,97220.03
2022-09-18T07:38:26.687Z,97222.69
2022-09-18T07:43:31.839Z,97218.41
2022-09-18T07:48:35.416Z,97216.84
2022-09-18T07:53:44.789Z,97214.78
2022-09-18T07:58:46.970Z,97214.84
2022-09-18T08:03:56.408Z,97227.44
2022-09-18T08:09:09.554Z,97222.16
2022-09-18T08:14:34.546Z,97224.44
2022-09-18T08:20:09.678Z,97213.34
2022-09-18T08:25:20.758Z,97220.56
2022-09-18T08:30:23.971Z,97221.47
2022-09-18T08:35:30.827Z,97222.28
2022-09-18T08:40:49.340Z,97215.50
2022-09-18T08:46:06.587Z,97213.06
2022-09-18T08:51:17.208Z,97215.53
2022-09-18T08:56:22.087Z,97200.31
2022-09-18T09:02:09.954Z,97213.47
2022-09-18T09:07:36.510Z,97207.91
2022-09-18T09:12:46.754Z,97211.22
2022-09-18T09:17:49.239Z,97198.66
2022-09-18T09:22:57.321Z,97216.28
2022-09-18T09:28:16.204Z,97221.28
2022-09-18T09:33:53.790Z,97219.88
2022-09-18T09:39:23.384Z,97216.38
2022-09-18T09:44:29.181Z,97221.88
2022-09-18T09:49:43.485Z,97211.56
2022-09-18T09:54:45.219Z,97205.97
2022-09-18T09:59:52.645Z,97195.78
2022-09-18T10:05:18.101Z,97201.28
2022-09-18T10:10:27.183Z,97224.63
2022-09-18T10:15:38.609Z,97221.06
2022-09-18T10:20:44.460Z,97221.28
2022-09-18T10:25:52.174Z,97199.47
2022-09-18T10:30:58.372Z,97213.00
2022-09-18T10:36:08.951Z,97204.72
2022-09-18T10:41:11.976Z,97194.44
2022-09-18T10:46:13.863Z,97204.69
2022-09-18T10:51:21.462Z,97200.81
2022-09-18T10:56:25.046Z,97185.25
2022-09-18T11:01:29.603Z,97185.97
2022-09-18T11:06:35.071Z,97179.44
2022-09-18T11:11:52.390Z,97172.94
2022-09-18T11:17:00.295Z,97165.41
2022-09-18T11:22:27.258Z,97159.22
2022-09-18T11:27:43.296Z,97162.50
2022-09-18T11:32:46.170Z,97155.28
2022-09-18T11:37:52.979Z,97165.75
2022-09-18T11:42:55.880Z,97156.59
2022-09-18T11:48:07.990Z,97163.31
2022-09-18T11:53:29.751Z,97148.78
2022-09-18T11:58:34.989Z,97140.19
2022-09-18T12:03:49.354Z,97131.25
2022-09-18T12:09:03.124Z,97128.03
2022-09-18T12:14:12.639Z,97137.25
2022-09-18T12:19:17.271Z,97134.25
2022-09-18T12:24:18.709Z,97132.81
2022-09-18T12:29:31.246Z,97136.78
2022-09-18T12:34:51.291Z,97131.09
2022-09-18T12:40:04.204Z,97137.28
2022-09-18T12:45:17.491Z,97145.88
2022-09-18T12:50:39.609Z,97143.53
2022-09-18T12:56:01.182Z,97150.50
2022-09-18T13:01:04.933Z,97139.00
2022-09-18T13:06:09.191Z,97139.31
2022-09-18T13:11:28.419Z,97123.47
2022-09-18T13:16:34.037Z,97109.50
2022-09-18T13:21:43.869Z,97107.75
2022-09-18T13:26:47.375Z,97104.25
2022-09-18T13:31:52.826Z,97115.03
2022-09-18T13:37:04.055Z,97104.72
2022-09-18T13:42:05.642Z,97095.13
2022-09-18T13:47:14.205Z,97082.97
2022-09-18T13:52:27.542Z,97085.78
2022-09-18T13:57:29.600Z,97096.72
2022-09-18T14:02:32.283Z,97093.91
2022-09-18T14:07:33.603Z,97097.44
2022-09-18T14:12:35.440Z,97093.28
2022-09-18T14:17:37.968Z,97100.97
2022-09-18T14:22:40.739Z,97100.59
2022-09-18T14:27:53.322Z,97111.72
2022-09-18T14:33:03.562Z,97112.50
2022-09-18T14:38:15.573Z,97121.66
2022-09-18T14:43:17.088Z,97121.06
2022-09-18T14:48:37.786Z,97114.78
2022-09-18T14:53:43.862Z,97123.50
2022-09-18T14:58:46.743Z,97113.25
2022-09-18T15:03:50.288Z,97121.91
2022-09-18T15:08:52.747Z,97118.03
2022-09-18T15:13:54.959Z,97129.53
2022-09-18T15:18:57.241Z,97118.66
2022-09-18T15:23:59.682Z,97122.38
2022-09-18T15:29:02.566Z,97113.13
2022-09-18T15:34:16.663Z,97085.97
2022-09-18T15:39:27.602Z,97074.06
2022-09-18T15:44:28.885Z,97073.44
2022-09-18T15:49:34.268Z,97075.50
2022-09-18T15:54:35.552Z,97069.53
2022-09-18T15:59:38.939Z,97079.00
2022-09-18T16:04:40.505Z,97077.38
2022-09-18T16:09:43.035Z,97072.84
2022-09-18T16:14:45.998Z,97073.66
2022-09-18T16:19:47.272Z,97081.88
2022-09-18T16:24:49.407Z,97078.38
2022-09-18T16:29:50.707Z,97086.00
2022-09-18T16:34:52.000Z,97088.88
2022-09-18T16:39:53.307Z,97102.63
2022-09-18T16:44:54.705Z,97101.00
2022-09-18T16:49:55.988Z,97102.19
2022-09-18T16:54:57.268Z,97089.25
2022-09-18T17:00:01.474Z,97079.38
2022-09-18T17:05:03.165Z,97077.34
2022-09-18T17:10:04.869Z,97085.13
2022-09-18T17:15:07.109Z,97082.88
2022-09-18T17:20:08.906Z,97082.69
2022-09-18T17:25:11.384Z,97088.22
2022-09-18T17:30:12.732Z,97085.13
2022-09-18T17:35:14.420Z,97094.59
2022-09-18T17:40:15.919Z,97083.06
2022-09-18T17:45:17.360Z,97081.00
2022-09-18T17:50:20.260Z,97085.31
2022-09-18T17:55:21.597Z,97087.16
2022-09-18T18:00:24.231Z,97087.31
2022-09-18T18:05:26.544Z,97081.16
2022-09-18T18:10:29.425Z,97087.13
2022-09-18T18:15:30.765Z,97097.41
2022-09-18T18:20:32.167Z,97101.13
2022-09-18T18:25:34.564Z,97103.81
2022-09-18T18:30:35.907Z,97104.81
2022-09-18T18:35:37.310Z,97096.59
2022-09-18T18:40:40.290Z,97103.56
2022-09-18T18:45:52.491Z,97107.22
2022-09-18T18:50:57.087Z,97108.88
2022-09-18T18:56:02.349Z,97111.53
2022-09-18T19:01:07.735Z,97107.19
2022-09-18T19:06:11.672Z,97105.56
2022-09-18T19:11:15.995Z,97104.31
2022-09-18T19:16:17.673Z,97097.31
2022-09-18T19:21:20.588Z,97101.03
2022-09-18T19:26:23.380Z,97098.53
2022-09-18T19:31:25.674Z,97099.97
2022-09-18T19:36:28.099Z,97095.66
2022-09-18T19:41:41.771Z,97089.50
2022-09-18T19:46:43.897Z,97079.44
2022-09-18T19:51:46.007Z,97079.00
2022-09-18T19:56:48.157Z,97087.19
2022-09-18T20:01:49.588Z,97080.03
2022-09-18T20:06:51.031Z,97076.53
2022-09-18T20:11:52.373Z,97076.53
2022-09-18T20:16:54.895Z,97071.19
2022-09-18T20:21:56.479Z,97060.50
2022-09-18T20:26:58.292Z,97054.59
2022-09-18T20:31:59.745Z,97067.50
2022-09-18T20:37:03.271Z,97070.75
2022-09-18T20:42:07.712Z,97065.00
2022-09-18T20:47:09.117Z,97054.53
2022-09-18T20:52:14.471Z,97047.53
2022-09-18T20:57:16.109Z,97044.28
2022-09-18T21:02:18.397Z,97053.09
2022-09-18T21:07:21.225Z,97055.13
2022-09-18T21:12:22.567Z,97054.47
2022-09-18T21:17:24.170Z,97043.00
2022-09-18T21:22:30.233Z,97043.00
2022-09-18T21:27:31.541Z,97043.00
2022-09-18T21:32:32.830Z,97041.38
2022-09-18T21:37:34.105Z,97045.06
2022-09-18T21:42:36.610Z,97038.47
2022-09-18T21:47:39.073Z,97031.50
2022-09-18T21:52:42.621Z,97031.91
2022-09-18T21:57:43.959Z,97024.75
2022-09-18T22:02:45.336Z,97023.13
2022-09-18T22:07:47.213Z,97026.22
2022-09-18T22:12:48.519Z,97019.66
2022-09-18T22:17:50.272Z,97025.25
2022-09-18T22:22:51.535Z,97030.56
2022-09-18T22:27:52.812Z,97032.03
2022-09-18T22:32:55.468Z,97028.75
2022-09-18T22:37:56.939Z,97034.50
2022-09-18T22:42:58.212Z,97034.72
2022-09-18T22:47:59.473Z,97034.50
2022-09-18T22:53:00.763Z,97027.31
2022-09-18T22:58:04.532Z,97026.69
2022-09-18T23:03:06.389Z,97030.59
2022-09-18T23:08:07.832Z,97036.50
2022-09-18T23:13:09.297Z,97026.63
2022-09-18T23:18:10.572Z,97023.13
2022-09-18T23:23:11.831Z,97027.41
2022-09-18T23:28:13.097Z,97025.78
2022-09-18T23:33:14.368Z,97020.66
2022-09-18T23:38:15.642Z,97022.06
2022-09-18T23:43:17.108Z,97015.72
2022-09-18T23:48:18.373Z,97012.63
2022-09-18T23:53:20.363Z,97011.78
2022-09-18T23:58:21.620Z,97008.53
